Tiempo atmosférico en la estación meteorológica de Zumarraga, Gipuzkoa (420 m.)



Fecha
DESCASC
Temp. máxima en grados centígrados (hora)
DESCASC
Temp. mínima en grados centígrados (hora)
DESCASC
Temp. media en grados centígrados
DESCASC
Racha de viento máxima en m/sg (hora)
DESCASC
Velocidad máxima media en intervalos de 10 minutos(hora)
DESCASC
Precipitaciones diarias en mm
DESCASC
Precipitaciones de 00:00 a 06:00 en mm
DESCASC
Precipitaciones de 06:00 a 12:00 en mm
DESCASC
Precipitaciones de 12:00 a 18:00 en mm
DESCASC
Precipitaciones de 18:00 a 24:00 en mm
DESCASC
22-01-2020 7.2 (15:10) 1.9 (03:50) 4.5 5.28 (14:00) 3.33 (14:00) 0.1 0 0 0 0.1
21-01-2020 3.5 (22:40) 0.7 (03:50) 2.1 7.78 (06:30) 3.33 (07:50) 0 0 0 0 0
20-01-2020 1.9 (21:10) -1.5 (09:00) 0.2 12.5 (03:30) 5.28 (01:30) 0 0 0 0 0
19-01-2020 5.1 (03:40) 1.4 (00:00) 3.2 18.89 (18:20) 5 (22:10) 6.7 6.1 0.6 0 0
18-01-2020 9.1 (14:30) 2 (00:00) 5.6 11.94 (18:40) 6.94 (19:10) 16 0 0 0.7 15.3
17-01-2020 12.2 (00:50) 3.3 (00:00) 7.7 14.17 (01:10) 5.83 (08:20) 3.1 0 3 0.1 0
16-01-2020 13.1 (14:00) 6.5 (00:00) 9.8 14.17 (23:59) 5.28 (11:00) 0 0 0 0 0
15-01-2020 12.7 (14:00) 7.4 (00:00) 10 20 (04:40) 5.56 (04:00) 0 0 0 0 0
14-01-2020 11.1 (13:00) 6.5 (00:00) 8.8 13.89 (21:00) 3.33 (03:30) 0 0 0 0 0
13-01-2020 10.6 (16:30) 0.8 (00:00) 5.7 14.17 (20:20) 6.39 (22:50) 0 0 0 0 0
12-01-2020 9.6 (13:40) -1.8 (-00:0) 3.9 5 (20:30) 2.5 (15:40) 0.2 0 0.1 0.1 0
11-01-2020 6.8 (14:10) 0 (00:00) 3.4 2.78 (01:20) 1.39 (12:20) 0.1 0 0.1 0 0
10-01-2020 7.8 (13:30) 3.6 (00:00) 5.7 8.89 (14:10) 4.44 (02:40) 8.4 1 3.8 2.8 0.8
09-01-2020 13 (13:30) 4.9 (00:00) 9 19.17 (17:50) 8.61 (17:40) 2.8 0 0 0 2.8
08-01-2020 13.9 (13:30) 4.4 (00:00) 9.1 3.61 (15:00) 1.67 (15:00) 0 0 0 0 0
07-01-2020 11.2 (16:20) 1.3 (00:00) 6.2 3.33 (16:00) 1.67 (12:00) 0 0 0 0 0
06-01-2020 10.6 (13:40) -1.3 (-00:0) 4.7 5.28 (17:10) 2.5 (17:10) 0.1 0 0.1 0 0
05-01-2020 9.1 (13:30) 0.5 (00:00) 4.8 3.61 (16:50) 1.11 (16:30) 0 0 0 0 0
04-01-2020 7.2 (12:50) 4.7 (00:00) 5.9 6.94 (01:50) 3.06 (12:30) 2.8 0.4 0.8 1.6 0
03-01-2020 6.5 (23:59) 0.3 (00:00) 3.4 4.17 (13:20) 1.94 (23:20) 1.7 0 0 0.6 1.1
02-01-2020 9.3 (16:20) -1.3 (-00:0) 4 3.61 (13:30) 1.67 (13:30) 0.1 0 0.1 0 0
01-01-2020 8.3 (15:00) 1.3 (00:00) 4.8 2.5 (12:50) 1.39 (15:50) 0 0 0 0 0
31-12-2019 7.6 (13:40) -1.5 (-00:0) 3 5 (14:20) 2.22 (14:30) 0 0 0 0 0
30-12-2019 6.5 (13:20) -0.5 (-00:0) 3 3.33 (11:40) 1.67 (12:20) 0 0 0 0 0
29-12-2019 9.6 (15:10) 1.4 (00:00) 5.5 2.78 (14:20) 1.94 (14:20) 0.1 0 0.1 0 0
28-12-2019 12.1 (13:30) 1.2 (00:00) 6.7 2.78 (03:50) 1.39 (15:20) 0 0 0 0 0
27-12-2019 9.3 (15:30) 0.2 (00:00) 4.8 2.22 (16:20) 1.67 (16:20) 0 0 0 0 0
26-12-2019 15.8 (01:40) 2.8 (00:00) 9.3 12.78 (01:30) 6.11 (02:00) 0 0 0 0 0
25-12-2019 15.7 (22:40) 5.1 (00:00) 10.4 5.56 (22:50) 2.22 (18:00) 0 0 0 0 0
24-12-2019 14.8 (13:20) 5.3 (00:00) 10.1 2.78 (20:00) 1.11 (13:30) 0 0 0 0 0

Gráficas

Temp. máximas Temp. mínimas Temp. medias Precipitaciones Rachas de viento máximas Velocidades máximas media en intervalos de 10 minutos

Datos horarios

Fecha y hora oficial Temperatura (ºC) Velocidad del viento (km/h) Dirección del viento Racha (km/h) Dirección de racha Precipitación (mm) Presión (hPa) Tendencia (hPa) Humedad (%)
2020-01-22 23:00:00 4.3 0 Calma 6 Oeste 0 969.2 -0.4 99
2020-01-22 22:00:00 4.7 2 Oeste 8 Oeste 0 969.2 -0.5 99
2020-01-22 21:00:00 4.8 0 Calma 14 Noroeste 0 969.6 -0.3 99
2020-01-22 20:00:00 4.9 5 Oeste 13 Oeste 0 969.6 -0.4 98
2020-01-22 19:00:00 5.1 0 Calma 8 Oeste 0.1 969.7 -0.2 97
2020-01-22 18:00:00 6 0 Calma 17 Oeste 0 969.9 -0.2 88
2020-01-22 17:00:00 6.6 10 Oeste 18 Oeste 0 970 -0.8 82
2020-01-22 16:00:00 6.8 8 Oeste 17 Noroeste 0 969.9 -2 81
2020-01-22 15:00:00 7 7 Oeste 19 Oeste 0 970.1 -2.6 82
2020-01-22 14:00:00 5.9 12 Oeste 19 Oeste 0 970.8 -2 88
2020-01-22 13:00:00 6 0 Calma 5 Noroeste 0 971.9 -0.7 86
2020-01-22 12:00:00 5.5 0 Calma 9 Oeste 0 972.7 0.3 89
2020-01-22 11:00:00 4.3 2 Noroeste 6 Noroeste 0 972.8 0.5 97
2020-01-22 10:00:00 3.5 0 Calma 7 Oeste 0 972.6 0.4 99
2020-01-22 09:00:00 2.9 0 Calma 8 Oeste 0 972.4 0.1 99
2020-01-22 08:00:00 2.5 0 Calma 7 Sudeste 0 972.3 -0.8 99
2020-01-22 07:00:00 2.4 0 Calma 7 Sudeste 0 972.2 -1.5 99
2020-01-22 06:00:00 2.9 0 Calma 5 Sudoeste 0 972.3 -1.2 99
2020-01-22 05:00:00 2.6 0 Calma 8 Oeste 0 973.1 -0.7 99
2020-01-22 04:00:00 1.9 6 Sudeste 13 Sudeste 0 973.7 -0.7 97
2020-01-22 03:00:00 3.6 0 Calma 8 Oeste 0 973.5 -1.6 97
2020-01-22 02:00:00 3.5 0 Calma 11 Oeste 0 973.8 -1.2 97
2020-01-22 01:00:00 2.9 0 Calma 8 Sudoeste 0 974.4 -1 97
2020-01-22 00:00:00 2.8 0 Calma 11 Norte 0 975.1 -0.6 95
2020-01-21 23:00:00 3 2 Sudoeste 11 Oeste 0 975 -0.9 94
2020-01-21 22:00:00 2.8 0 Calma 10 Oeste 0 975.4 -0.7 93
2020-01-21 21:00:00 2.4 2 Oeste 10 Oeste 0 975.7 -0.2 91
2020-01-21 20:00:00 2.4 2 Sudoeste 12 Sudoeste 0 975.9 -0.4 90
2020-01-21 19:00:00 1.8 3 Oeste 10 Oeste 0 976.1 -0.6 89
2020-01-21 18:00:00 1.7 3 Oeste 10 Noroeste 0 975.9 -0.5 88
2020-01-21 17:00:00 1.6 2 Noroeste 10 Noroeste 0 976.3 -0.6 88
2020-01-21 16:00:00 1.1 0 Calma 14 Nordeste 0 976.7 -1.1 90
2020-01-21 15:00:00 1.4 3 Norte 22 Norte 0 976.4 -1.9 88
2020-01-21 14:00:00 1.6 6 Norte 17 Nordeste 0 976.9 -1.6 88
2020-01-21 13:00:00 1.5 5 Nordeste 15 Norte 0 977.8 -0.7 88
2020-01-21 12:00:00 1.4 0 Calma 21 Noroeste 0 978.3 -0.6 88
2020-01-21 11:00:00 1.4 4 Norte 21 Nordeste 0 978.5 -0.5 85
2020-01-21 10:00:00 1.4 0 Calma 11 Norte 0 978.5 -0.1 82
2020-01-21 09:00:00 1.1 0 Calma 14 Noroeste 0 978.9 0.1 81
2020-01-21 08:00:00 1.1 9 Noroeste 28 Noroeste 0 979 -0.2 80
2020-01-21 07:00:00 1.6 10 Noroeste 28 Norte 0 978.6 -1.2 78
2020-01-21 06:00:00 1.4 5 Norte 23 Norte 0 978.8 -1.4 76
2020-01-21 05:00:00 1.6 6 Norte 26 Nordeste 0 979.2 -1.6 71
2020-01-21 04:00:00 1 5 Norte 17 Nordeste 0 979.8 -1.7 69
2020-01-21 03:00:00 0.9 5 Norte 15 Noroeste 0 980.2 -1.3 69
2020-01-21 02:00:00 1.2 3 Norte 19 Norte 0 980.8 -0.7 68
2020-01-21 01:00:00 1.5 6 Nordeste 23 Este 0 981.5 0 60
2020-01-21 00:00:00 1.3 4 Norte 20 Noroeste 0 981.5 -0.3 61
2020-01-20 23:00:00 1.6 7 Noroeste 25 Noroeste 0 981.5 -0.3 61
2020-01-20 22:00:00 1.8 7 Norte 35 Sudeste 0 981.5 -0.1 61
2020-01-20 21:00:00 1.8 8 Este 24 Este 0 981.8 0.4 71
2020-01-20 20:00:00 1.5 0 Calma 13 Noroeste 0 981.8 0.4 73
2020-01-20 19:00:00 1.2 6 Nordeste 21 Nordeste 0 981.6 0.6 73
2020-01-20 18:00:00 1 0 Calma 22 Noroeste 0 981.4 0.2 73
2020-01-20 17:00:00 0.9 2 Nordeste 25 Noroeste 0 981.4 -0.3 68
2020-01-20 16:00:00 1.4 5 Noroeste 27 Noroeste 0 981 -1.2 63
2020-01-20 15:00:00 1.4 5 Norte 24 Norte 0 981.2 -1.4 63
2020-01-20 14:00:00 1 3 Noroeste 15 Norte 0 981.7 -0.9 67
2020-01-20 13:00:00 0.3 5 Noroeste 14 Oeste 0 982.2 -0.3 74
2020-01-20 12:00:00 -0.5 8 Noroeste 18 Noroeste 0 982.6 0.4 79
2020-01-20 11:00:00 -0.4 3 Norte 20 Noroeste 0 982.6 0.5 79
2020-01-20 10:00:00 -0.9 3 Norte 21 Este 0 982.5 1 81
2020-01-20 09:00:00 -1.5 4 Norte 17 Norte 0 982.2 0.7 81
2020-01-20 08:00:00 -1 6 Norte 19 Noroeste 0 982.1 0.4 79
2020-01-20 07:00:00 -0.7 10 Noroeste 29 Noroeste 0 981.5 -0.6 76
2020-01-20 06:00:00 -0.5 6 Norte 30 Nordeste 0 981.5 -1.3 74
2020-01-20 05:00:00 -0.3 7 Nordeste 42 Nordeste 0 981.7 -1.7 73
2020-01-20 04:00:00 -0.1 13 Nordeste 45 Este 0 982.1 -1.8 70
2020-01-20 03:00:00 0.2 14 Nordeste 41 Norte 0 982.8 -1.2 68
2020-01-20 02:00:00 0.6 14 Este 44 Este 0 983.4 0 66
2020-01-20 01:00:00 0.9 13 Nordeste 40 Nordeste 0 983.9 0.4 66
2020-01-20 00:00:00 1.4 12 Nordeste 42 Norte 0 984 1.3 65
2020-01-19 23:00:00 1.9 9 Este 44 Este 0 983.4 0.7 63
2020-01-19 22:00:00 2.2 13 Este 42 Norte 0 983.5 2.1 59
2020-01-19 21:00:00 2.9 8 Norte 42 Noroeste 0 982.7 1.7 60
2020-01-19 20:00:00 3.4 10 Norte 41 Noroeste 0 982.7 1.7 54
2020-01-19 19:00:00 3.7 15 Norte 68 Nordeste 0 981.4 0.9 53
2020-01-19 18:00:00 3.9 13 Norte 47 Norte 0 981 0.8 56
2020-01-19 17:00:00 4 14 Norte 40 Nordeste 0 981 0.5 60
2020-01-19 16:00:00 3.9 14 Norte 35 Nordeste 0 980.5 0.2 62
2020-01-19 15:00:00 3.8 9 Norte 33 Noroeste 0 980.2 -0.2 67
2020-01-19 14:00:00 3.9 8 Norte 37 Nordeste 0 980.5 0.9 69
2020-01-19 13:00:00 4.4 12 Norte 41 Nordeste 0 980.3 2.2 70
2020-01-19 12:00:00 3.6 12 Norte 30 Norte 0 980.4 3.6 72
2020-01-19 11:00:00 3.1 9 Norte 35 Noroeste 0 979.6 3.7 80
2020-01-19 10:00:00 3.2 9 Norte 34 Noroeste 0 978.1 3.2 84
2020-01-19 09:00:00 3.4 10 Norte 27 Nordeste 0 976.8 3.2 88
2020-01-19 08:00:00 3.4 11 Norte 28 Nordeste 0 975.9 3.9 88
2020-01-19 07:00:00 3.4 11 Norte 33 Norte 0.6 974.9 4.1 93
2020-01-19 06:00:00 4.3 8 Norte 40 Noroeste 0.9 973.6 3.1 93
2020-01-19 05:00:00 4.8 9 Norte 30 Noroeste 0.6 972 1.7 99
2020-01-19 04:00:00 4.8 3 Norte 29 Noroeste 0.5 970.8 0.4 99
2020-01-19 03:00:00 4.6 6 Oeste 14 Sudoeste 1.6 970.5 0.3 99
2020-01-19 02:00:00 3.8 0 Calma 9 Oeste 1.7 970.3 0.2 99
2020-01-19 01:00:00 3.6 2 Sudeste 6 Sudeste 0.8 970.4 0.1 99
2020-01-19 00:00:00 3.8 0 Calma 0 Calma 2.1 970.2 -0.2 99
2020-01-18 23:00:00 3.8 0 Calma 12 Este 1.5 970.1 0 99
2020-01-18 22:00:00 4.1 0 Calma 10 Sudeste 3 970.3 1.1 99
2020-01-18 21:00:00 4.4 0 Calma 6 Oeste 2.3 970.4 2.9 99
2020-01-18 20:00:00 5.2 3 Oeste 39 Oeste 3.6 970.1 2.5 99
2020-01-18 19:00:00 5.8 22 Oeste 43 Oeste 2.8 969.2 1.5 96
2020-01-18 18:00:00 6.6 4 Este 30 Sudeste 0.4 967.5 -0.4 91
2020-01-18 17:00:00 7 7 Sudeste 24 Este 0.3 967.6 -1.1 85
2020-01-18 16:00:00 8.2 6 Sudeste 37 Sudeste 0 967.7 -3 67
2020-01-18 15:00:00 8.9 13 Sudeste 36 Sudeste 0 967.9 -4.9 55
2020-01-18 14:00:00 8.3 11 Sudeste 30 Sudeste 0 968.7 -5 58
2020-01-18 13:00:00 8.5 12 Sudeste 28 Este 0 970.7 -3.8 55
2020-01-18 12:00:00 7.7 16 Sudeste 35 Sudeste 0 972.8 -2.3 56
2020-01-18 11:00:00 5.7 0 Calma 10 Sudeste 0 973.7 -2.1 82
2020-01-18 10:00:00 3.3 0 Calma 8 Sudeste 0 974.5 -1.6 93
2020-01-18 09:00:00 3.1 0 Calma 6 Sudeste 0 975.1 -2 93
2020-01-18 08:00:00 2.8 0 Calma 9 Sudoeste 0 975.8 -1.9 94
2020-01-18 07:00:00 2.9 0 Calma 10 Sudeste 0 976.1 -2.2 96
2020-01-18 06:00:00 2.6 0 Calma 5 Sudoeste 0 977.1 -1.7 99
2020-01-18 05:00:00 2.3 0 Calma 4 Sudeste 0 977.7 -1.7 99
2020-01-18 04:00:00 2.1 0 Calma 5 Sudeste 0 978.3 -1.4 99
2020-01-18 03:00:00 2.3 0 Calma 0 Calma 0 978.8 -1.6 99
2020-01-18 02:00:00 2.1 0 Calma 0 Calma 0 979.4 -1.5 99
2020-01-18 01:00:00 2.7 0 Calma 0 Calma 0 979.7 -1.4 97
2020-01-18 00:00:00 3.3 0 Calma 4 Sudeste 0 980.4 -1 95
2020-01-17 23:00:00 3.9 0 Calma 3 Sudeste 0 980.9 -0.3 93
2020-01-17 22:00:00 4 0 Calma 6 Sudoeste 0 981.1 0.4 92
2020-01-17 21:00:00 4.3 0 Calma 8 Sudoeste 0 981.4 1.3 88
2020-01-17 20:00:00 4.8 0 Calma 5 Oeste 0 981.2 1.8 84
2020-01-17 19:00:00 5.4 0 Calma 19 Oeste 0 980.7 2 77
2020-01-17 18:00:00 6.7 10 Noroeste 18 Oeste 0 980.1 1.7 75
2020-01-17 17:00:00 7.2 10 Oeste 23 Oeste 0 979.4 1.3 74
2020-01-17 16:00:00 6.8 9 Oeste 22 Oeste 0 978.7 0.6 77
2020-01-17 15:00:00 7.1 14 Noroeste 36 Oeste 0 978.4 0.1 76
2020-01-17 14:00:00 6.5 15 Oeste 37 Oeste 0 978.1 0.6 81
2020-01-17 13:00:00 6.7 13 Oeste 27 Oeste 0.1 978.1 1.7 87
2020-01-17 12:00:00 6.4 7 Oeste 30 Noroeste 0.1 978.3 2.7 89
2020-01-17 11:00:00 5.4 17 Oeste 33 Oeste 1.2 977.5 3.8 94
2020-01-17 10:00:00 6.1 16 Oeste 33 Noroeste 0.2 976.4 3.5 92
2020-01-17 09:00:00 6 15 Oeste 42 Noroeste 1.1 975.6 3.8 94
2020-01-17 08:00:00 8 3 Noroeste 16 Noroeste 0.3 973.7 1.8 85
2020-01-17 07:00:00 9.2 8 Noroeste 28 Oeste 0.1 972.9 1.1 70
2020-01-17 06:00:00 9.6 5 Noroeste 31 Sudoeste 0 971.8 0.3 63
2020-01-17 05:00:00 9.3 0 Calma 22 Oeste 0 971.9 0.9 63
2020-01-17 04:00:00 9.9 2 Noroeste 29 Sudeste 0 971.8 1.6 58
2020-01-17 03:00:00 10.9 4 Sur 35 Sur 0 971.5 1.5 54
2020-01-17 02:00:00 11.7 6 Sudoeste 51 Sur 0 971 0.7 53
2020-01-17 01:00:00 11.8 4 Sudoeste 47 Sudoeste 0 970.2 -0.2 52
2020-01-17 00:00:00 11.4 14 Sur 51 Sur 0 970 0.2 52
2020-01-16 23:00:00 10.7 9 Sudeste 23 Sudeste 0 970.3 0.8 60
2020-01-16 22:00:00 10.8 9 Sudeste 68 Sudeste 0 970.4 1.3 64
2020-01-16 21:00:00 11 14 Sudeste 32 Sudeste 0 969.8 0.2 66
2020-01-16 20:00:00 11.2 13 Sudeste 37 Sudeste 0 969.5 0.1 66
2020-01-16 19:00:00 11.3 14 Sudeste 32 Sudeste 0 969.1 -0.4 67
2020-01-16 18:00:00 11.6 8 Sudeste 26 Sudeste 0 969.6 -0.2 66
2020-01-16 17:00:00 12 8 Sudeste 31 Este 0 969.4 -0.8 64
2020-01-16 16:00:00 12.4 11 Sudeste 31 Sudeste 0 969.5 -1.8 61
2020-01-16 15:00:00 12.5 13 Sudeste 31 Sudeste 0 969.8 -2.2 60
2020-01-16 14:00:00 13.1 10 Sudeste 29 Este 0 970.2 -2.1 60
2020-01-16 13:00:00 11.7 16 Sudeste 28 Sudeste 0 971.3 -1.1 64
2020-01-16 12:00:00 10 14 Sudeste 34 Sudeste 0 972 0 70
2020-01-16 11:00:00 9.1 19 Sudeste 47 Sudeste 0 972.3 0.3 71
2020-01-16 10:00:00 8.6 11 Sudeste 27 Este 0 972.4 0.8 75
2020-01-16 09:00:00 7.4 4 Sudeste 26 Sudeste 0 972 0.3 76
2020-01-16 08:00:00 7.7 7 Sudeste 19 Sudeste 0 972 0 75
2020-01-16 07:00:00 7.3 4 Sudeste 24 Sudeste 0 971.6 -0.7 76
2020-01-16 06:00:00 6.9 0 Calma 13 Este 0 971.7 -0.6 74
2020-01-16 05:00:00 7.2 7 Sudeste 18 Este 0 972 -0.4 72
2020-01-16 04:00:00 6.9 5 Este 15 Sudeste 0 972.3 -0.5 72
2020-01-16 03:00:00 7.9 7 Sudeste 15 Este 0 972.3 -0.4 69
2020-01-16 02:00:00 7.4 7 Este 17 Sudeste 0 972.4 -0.4 70
2020-01-16 01:00:00 7.6 5 Sudeste 13 Este 0 972.8 -0.1 70
2020-01-16 00:00:00 7.8 7 Sudeste 24 Sudeste 0 972.7 -0.3 68
2020-01-15 23:00:00 10.1 6 Sudeste 28 Sur 0 972.8 -0.1 63
2020-01-15 22:00:00 9.9 2 Sur 26 Sur 0 972.9 0.6 62
2020-01-15 21:00:00 10.8 5 Sur 24 Sudoeste 0 973 1.1 61
2020-01-15 20:00:00 10 0 Calma 12 Sudoeste 0 972.9 1.8 62
2020-01-15 19:00:00 10 0 Calma 13 Noroeste 0 972.3 2 61
2020-01-15 18:00:00 10.5 0 Calma 33 Noroeste 0 971.9 2.3 59
2020-01-15 17:00:00 11.7 3 Oeste 31 Noroeste 0 971.1 1.9 56
2020-01-15 16:00:00 12.3 3 Sudeste 32 Oeste 0 970.3 1.2 53
2020-01-15 15:00:00 12.1 6 Noroeste 39 Noroeste 0 969.6 0 53
2020-01-15 14:00:00 12.5 7 Sur 38 Sur 0 969.2 0 51
2020-01-15 13:00:00 12 14 Sudeste 41 Sur 0 969.1 1.8 53
2020-01-15 12:00:00 10.5 7 Sudeste 41 Sur 0 969.6 3.4 55
2020-01-15 11:00:00 11 8 Sudeste 49 Sur 0 969.2 2.5 52
2020-01-15 10:00:00 10.7 12 Sudeste 60 Oeste 0 967.3 0.8 52
2020-01-15 09:00:00 11.6 12 Sur 43 Oeste 0 966.2 0.2 50
2020-01-15 08:00:00 7.9 12 Sudeste 29 Este 0 966.7 0.8 58
2020-01-15 07:00:00 7.5 15 Sudeste 34 Este 0 966.5 1.5 59
2020-01-15 06:00:00 8 14 Sudeste 55 Sur 0 966 -0.2 57
2020-01-15 05:00:00 11 12 Sur 72 Sur 0 965.9 0.3 55
2020-01-15 04:00:00 10.6 20 Sur 53 Sur 0 965 -1.1 57
2020-01-15 03:00:00 10.6 10 Sur 41 Sur 0 966.2 -0.3 56
2020-01-15 02:00:00 10.3 15 Sudeste 43 Sur 0 965.6 -0.4 54
2020-01-15 01:00:00 7.8 9 Sudeste 27 Sudeste 0 966.1 0.3 55
2020-01-15 00:00:00 8.6 9 Sudeste 38 Sur 0 966.5 0.4 52
2020-01-14 23:00:00 9.3 9 Sudeste 44 Sur 0 966 0 51
2020-01-14 22:00:00 8.4 6 Sudeste 41 Sur 0 965.8 -0.3 52
2020-01-14 21:00:00 9.2 6 Sudeste 50 Oeste 0 966.1 0.8 50
2020-01-14 20:00:00 8.7 8 Sudeste 31 Sur 0 966 0.2 52
2020-01-14 19:00:00 10.1 2 Sudeste 32 Sur 0 966.1 0.4 49
2020-01-14 18:00:00 10.1 4 Sudeste 31 Este 0 965.3 -0.7 50
2020-01-14 17:00:00 10.3 3 Noroeste 27 Norte 0 965.8 -0.4 49
2020-01-14 16:00:00 10.6 5 Sur 45 Sudeste 0 965.7 -1.4 48
2020-01-14 15:00:00 10.7 4 Sur 38 Sudoeste 0 966 -1.2 49
2020-01-14 14:00:00 10.9 6 Este 35 Sudoeste 0 966.2 -1.1 52
2020-01-14 13:00:00 10.2 0 Calma 35 Sudoeste 0 967.1 0.2 55
2020-01-14 12:00:00 9.4 7 Sur 38 Sur 0 967.2 0.7 60
2020-01-14 11:00:00 9.6 0 Calma 21 Oeste 0 967.3 0.7 61
2020-01-14 10:00:00 8.3 0 Calma 19 Sur 0 966.9 0.7 64
2020-01-14 09:00:00 7.8 6 Sur 20 Sur 0 966.5 0.4 64
2020-01-14 08:00:00 6.7 0 Calma 12 Sur 0 966.6 0 67
2020-01-14 07:00:00 7.4 2 Sudeste 24 Sur 0 966.2 -0.8 62
2020-01-14 06:00:00 7.1 0 Calma 17 Sudoeste 0 966.1 -0.6 63
2020-01-14 05:00:00 7.5 4 Sudeste 37 Sur 0 966.6 0 59
2020-01-14 04:00:00 7.1 12 Noroeste 36 Noroeste 0 967 -0.1 55
2020-01-14 03:00:00 8.2 0 Calma 48 Sur 0 966.7 -1.1 49
2020-01-14 02:00:00 8.3 4 Noroeste 48 Sur 0 966.6 -1.2 46
2020-01-14 01:00:00 8.5 2 Sudeste 43 Sudoeste 0 967.1 -0.3 46
2020-01-14 00:00:00 7.8 12 Noroeste 43 Noroeste 0 967.8 0.9 45
2020-01-13 23:00:00 7.7 13 Noroeste 47 Noroeste 0 967.8 0.5 43
2020-01-13 22:00:00 8.2 3 Oeste 39 Sur 0 967.4 0 37
2020-01-13 21:00:00 8.8 8 Sur 51 Sudeste 0 966.9 -0.8 35
2020-01-13 20:00:00 9 6 Sur 41 Sudeste 0 967.3 -0.5 33
2020-01-13 19:00:00 8.6 0 Calma 28 Sudeste 0 967.4 -0.9 35
2020-01-13 18:00:00 10.2 8 Sur 35 Oeste 0 967.7 -0.8 29
2020-01-13 17:00:00 10.4 4 Sur 27 Sudeste 0 967.8 -1.4 30
2020-01-13 16:00:00 10 4 Sudeste 30 Noroeste 0 968.3 -2.3 32
2020-01-13 15:00:00 9.1 0 Calma 12 Este 0 968.5 -3.2 50
2020-01-13 14:00:00 8.5 2 Sudeste 14 Sudeste 0 969.2 -2.8 58
2020-01-13 13:00:00 7.8 6 Sudeste 10 Este 0 970.6 -1.4 65
2020-01-13 12:00:00 6.2 0 Calma 6 Sudeste 0 971.7 -0.4 77
2020-01-13 11:00:00 4.1 0 Calma 7 Sudoeste 0 972 -0.3 99
2020-01-13 10:00:00 2.2 0 Calma 0 Calma 0 972 -0.6 99
2020-01-13 09:00:00 1.5 0 Calma 6 Sudoeste 0 972.1 -1.1 99
2020-01-13 08:00:00 1.6 0 Calma 0 Calma 0 972.3 -1.7 99
2020-01-13 07:00:00 1.1 0 Calma 0 Calma 0 972.6 -2.5 99
2020-01-13 06:00:00 2 0 Calma 5 Sudoeste 0 973.2 -2.2 99
2020-01-13 05:00:00 1.4 0 Calma 0 Calma 0 974 -1.8 99
2020-01-13 04:00:00 1.7 0 Calma 0 Calma 0 975.1 -1.5 99
2020-01-13 03:00:00 1.8 0 Calma 0 Calma 0 975.4 -1.9 99
2020-01-13 02:00:00 1.7 0 Calma 0 Calma 0 975.8 -1.6 99
2020-01-13 01:00:00 1.8 0 Calma 0 Calma 0 976.6 -0.9 97
2020-01-13 00:00:00 2.7 0 Calma 0 Calma 0 977.3 -0.6 94
2020-01-12 23:00:00 3 0 Calma 0 Calma 0 977.4 -1.1 93
2020-01-12 22:00:00 2.6 0 Calma 2 Sudoeste 0 977.5 -0.8 94
2020-01-12 21:00:00 3.1 0 Calma 18 Sudoeste 0 977.9 -0.3 90
2020-01-12 20:00:00 3 0 Calma 4 Sudoeste 0 978.5 0.4 88
2020-01-12 19:00:00 4.3 0 Calma 10 Sudoeste 0 978.3 0 77
2020-01-12 18:00:00 5.9 0 Calma 7 Sudoeste 0 978.2 -0.2 68
2020-01-12 17:00:00 7.7 3 Oeste 17 Oeste 0 978.1 -0.8 57
2020-01-12 16:00:00 8.1 6 Oeste 17 Oeste 0.1 978.3 -1.5 53
2020-01-12 15:00:00 8.2 6 Oeste 15 Sudoeste 0 978.4 -2.3 52
2020-01-12 14:00:00 8.8 7 Oeste 12 Noroeste 0 978.9 -1.9 50
2020-01-12 13:00:00 8.5 0 Calma 2 Sudeste 0 979.8 -0.6 67
2020-01-12 12:00:00 5.2 0 Calma 0 Calma 0 980.7 0.7 77
2020-01-12 11:00:00 3.9 0 Calma 3 Oeste 0 980.8 1.1 84
2020-01-12 10:00:00 0.2 0 Calma 2 Oeste 0.1 980.4 0.8 99
2020-01-12 09:00:00 -0.9 0 Calma 9 Sudoeste 0 980 0.8 99
2020-01-12 08:00:00 -1.5 0 Calma 10 Sudoeste 0 979.7 0.3 99
2020-01-12 07:00:00 -1.3 0 Calma 9 Sudoeste 0 979.6 0.3 99
2020-01-12 06:00:00 -0.9 0 Calma 0 Calma 0 979.2 0 99
2020-01-12 05:00:00 -0.7 0 Calma 11 Sudoeste 0 979.4 0.3 99
2020-01-12 04:00:00 -0.9 2 Oeste 8 Oeste 0 979.3 0.1 99
2020-01-12 03:00:00 0 0 Calma 4 Sudoeste 0 979.2 -0.2 99
2020-01-12 02:00:00 -0.3 0 Calma 8 Sudoeste 0 979.1 -0.2 99
2020-01-12 01:00:00 -0.6 0 Calma 9 Oeste 0 979.2 0 99
2020-01-12 00:00:00 0.1 0 Calma 0 Calma 0 979.4 0.2 99
2020-01-11 23:00:00 0.8 0 Calma 8 Sudoeste 0 979.3 -0.2 99
2020-01-11 22:00:00 1.2 0 Calma 6 Sudoeste 0 979.2 -0.1 99
2020-01-11 21:00:00 1.1 0 Calma 0 Calma 0 979.2 0.4 97
2020-01-11 20:00:00 2.5 0 Calma -- -- -- 979.5 1 96
2020-01-11 19:00:00 2.9 2 Sudoeste 7 Sudoeste 0 979.3 0.5 94
2020-01-11 18:00:00 4.1 0 Calma 7 Sudoeste 0 978.8 -0.2 86
2020-01-11 17:00:00 5.7 0 Calma 5 Sudeste 0 978.5 -1.3 68
2020-01-11 16:00:00 6.2 3 Sudeste 9 Sudeste 0 978.8 -1.9 76
2020-01-11 15:00:00 6.6 4 Sudeste 8 Sudeste 0 979 -2.7 78
2020-01-11 14:00:00 6.5 0 Calma 6 Este 0 979.8 -2.3 90
2020-01-11 13:00:00 6.1 3 Este 8 Este 0 980.7 -1.2 97
2020-01-11 12:00:00 3.7 0 Calma 7 Sudeste 0 981.7 -0.2 99
2020-01-11 11:00:00 2.1 2 Sudeste 8 Sudeste 0 982.1 0.2 99
2020-01-11 10:00:00 1.7 0 Calma 6 Oeste 0 981.9 0 99
2020-01-11 09:00:00 0.7 0 Calma 6 Noroeste 0 981.9 0.2 99
2020-01-11 08:00:00 0.7 0 Calma 8 Oeste 0 981.9 0.1 99
2020-01-11 07:00:00 0.6 0 Calma 8 Sudoeste 0.1 981.9 -0.5 99
2020-01-11 06:00:00 0.3 0 Calma 7 Oeste 0 981.7 -0.7 99
2020-01-11 05:00:00 0.3 0 Calma 0 Calma 0 981.8 -0.5 99
2020-01-11 04:00:00 0.9 0 Calma 4 Sudeste 0 982.4 -0.1 99
2020-01-11 03:00:00 1.6 0 Calma 5 Este 0 982.4 -0.2 99
2020-01-11 02:00:00 2.5 0 Calma 10 Oeste 0 982.3 -0.1 99
2020-01-11 01:00:00 2.8 3 Oeste 8 Oeste 0 982.5 0.1 99
2020-01-11 00:00:00 3.6 0 Calma 3 Este 0 982.6 0.6 99
2020-01-10 23:00:00 4.4 0 Calma 8 Sur 0 982.4 0.4 99
2020-01-10 22:00:00 4.9 0 Calma 16 Nordeste 0.2 982.4 1.4 99
2020-01-10 21:00:00 5.1 0 Calma 10 Oeste 0.1 982 1.1 99
2020-01-10 20:00:00 4.9 0 Calma 9 Sudoeste 0.2 982 1.8 99
2020-01-10 19:00:00 5.2 0 Calma 22 Oeste 0.3 981 1.3 94
2020-01-10 18:00:00 6.1 10 Noroeste 24 Noroeste 0.1 980.9 1.7 81
2020-01-10 17:00:00 6.3 12 Noroeste 30 Norte 0.1 980.2 0.9 83
2020-01-10 16:00:00 7.4 5 Noroeste 26 Nordeste 0 979.7 0.6 79
2020-01-10 15:00:00 6.9 10 Noroeste 32 Noroeste 0.3 979.2 -0.2 85
2020-01-10 14:00:00 6.3 12 Noroeste 31 Norte 2.1 979.3 0.2 91
2020-01-10 13:00:00 6.9 11 Oeste 28 Oeste 0.2 979.1 0.8 97
2020-01-10 12:00:00 5.8 4 Oeste 21 Oeste 2.9 979.4 1.3 99
2020-01-10 11:00:00 5.7 12 Oeste 24 Noroeste 0 979.1 1.3 96
2020-01-10 10:00:00 5.3 12 Oeste 26 Oeste 0 978.3 1 97
2020-01-10 09:00:00 5.1 12 Oeste 27 Oeste 0.1 978.1 1.5 96
2020-01-10 08:00:00 4.9 11 Oeste 21 Oeste 0.1 977.8 1.5 96
2020-01-10 07:00:00 5 15 Oeste 26 Noroeste 0.7 977.3 0.8 96
2020-01-10 06:00:00 5.3 12 Oeste 24 Oeste 0.1 976.6 0.6 93
2020-01-10 05:00:00 4.9 3 Oeste 19 Oeste 0 976.3 0.8 95
2020-01-10 04:00:00 5.4 12 Oeste 30 Noroeste 0.5 976.5 1.2 91
2020-01-10 03:00:00 5.7 14 Oeste 29 Oeste 0.3 976 0.7 91
2020-01-10 02:00:00 6.2 8 Oeste 24 Noroeste 0.1 975.5 0.5 87
2020-01-10 01:00:00 6.3 6 Oeste 17 Oeste 0 975.3 0.9 92
2020-01-10 00:00:00 6.1 0 Calma 19 Noroeste 0 975.3 1.6 99
2020-01-09 23:00:00 6.2 5 Oeste 12 Noroeste 0.5 975 1.1 99
2020-01-09 22:00:00 6.3 0 Calma 14 Sudoeste 0.7 974.4 0.9 99
2020-01-09 21:00:00 6.4 3 Oeste 16 Noroeste 0.3 973.7 0.1 99
2020-01-09 20:00:00 7.3 6 Oeste 23 Oeste 1.3 973.9 2.9 94
2020-01-09 19:00:00 7.9 8 Oeste 38 Oeste 0 973.5 4 88
2020-01-09 18:00:00 8.6 24 Oeste 69 Noroeste 0 973.6 4.2 81
2020-01-09 17:00:00 12 5 Oeste 34 Sur 0 971 0.4 59
2020-01-09 16:00:00 11.8 2 Sur 27 Noroeste 0 969.5 -2.1 59
2020-01-09 15:00:00 12.5 4 Sudeste 36 Sur 0 969.4 -3.7 54
2020-01-09 14:00:00 12.7 5 Sur 39 Sur 0 970.6 -2.8 52
2020-01-09 13:00:00 12 7 Sudeste 20 Este 0 971.6 -2 59
2020-01-09 12:00:00 10.5 4 Este 13 Este 0 973.1 -0.6 68
2020-01-09 11:00:00 7.9 0 Calma 12 Sudeste 0 973.4 -0.5 77
2020-01-09 10:00:00 6.4 0 Calma 6 Noroeste 0 973.6 -0.9 85
2020-01-09 09:00:00 6 0 Calma 9 Sudeste 0 973.7 -0.7 85
2020-01-09 08:00:00 6.1 0 Calma 12 Sudeste 0 973.9 -0.7 85
2020-01-09 07:00:00 5 0 Calma 7 Sudoeste 0 974.5 -0.3 86
2020-01-09 06:00:00 5.8 0 Calma 9 Sudeste 0 974.4 -0.9 82
2020-01-09 05:00:00 5.9 0 Calma 9 Este 0 974.6 -1.1 77
2020-01-09 04:00:00 6.1 0 Calma 2 Sudoeste 0 974.8 -1.2 74
2020-01-09 03:00:00 6.7 0 Calma 6 Sudeste 0 975.3 -1.2 68
2020-01-09 02:00:00 6.6 0 Calma 6 Sur 0 975.7 -0.8 72
2020-01-09 01:00:00 7.8 0 Calma 9 Sur 0 976 -0.7 68
2020-01-09 00:00:00 7.5 0 Calma 5 Sudeste 0 976.5 -0.4 75
2020-01-08 23:00:00 7.2 0 Calma 7 Sudeste 0 976.5 -0.7 74
2020-01-08 22:00:00 7.6 0 Calma 0 Calma 0 976.7 -0.7 69
2020-01-08 21:00:00 7.4 0 Calma 4 Sur 0 976.9 -0.4 77
2020-01-08 20:00:00 8 0 Calma 0 Calma 0 977.2 -0.1 92
2020-01-08 19:00:00 8.6 0 Calma 4 Sudoeste 0 977.4 0.2 90
2020-01-08 18:00:00 9.7 0 Calma 2 Sur 0 977.3 -0.1 83
2020-01-08 17:00:00 11.5 0 Calma 3 Sur 0 977.3 -0.7 73
2020-01-08 16:00:00 11.8 0 Calma 12 Oeste 0 977.2 -1.5 63
2020-01-08 15:00:00 12.3 6 Oeste 13 Oeste 0 977.4 -2.4 57
2020-01-08 14:00:00 12.1 3 Oeste 9 Noroeste 0 978 -2.2 57
2020-01-08 13:00:00 12.6 0 Calma 6 Sudeste 0 978.7 -1.5 72
2020-01-08 12:00:00 10 0 Calma 3 Sudeste 0 979.8 0.1 90
2020-01-08 11:00:00 8 0 Calma 0 Calma 0 980.2 0.7 99
2020-01-08 10:00:00 5.8 0 Calma 7 Sudeste 0 980.2 1.1 99
2020-01-08 09:00:00 4.9 0 Calma 6 Sudoeste 0 979.7 0.9 99
2020-01-08 08:00:00 4.6 0 Calma 6 Oeste 0 979.5 0.7 99
2020-01-08 07:00:00 4.6 0 Calma 4 Sudoeste 0 979.1 0 99
2020-01-08 06:00:00 5.1 0 Calma 12 Sudoeste 0 978.8 -0.6 99
2020-01-08 05:00:00 5.5 3 Sudoeste 13 Oeste 0 978.8 -0.8 99
2020-01-08 04:00:00 5.3 3 Sudoeste 11 Sudoeste 0 979.1 -0.9 99
2020-01-08 03:00:00 5.6 0 Calma 9 Sudoeste 0 979.4 -0.9 99
2020-01-08 02:00:00 5.8 0 Calma 0 Calma 0 979.6 -0.5 99
2020-01-08 01:00:00 5.6 0 Calma 9 Oeste 0 980 -0.3 99
2020-01-08 00:00:00 5.7 0 Calma 9 Sudoeste 0 980.3 0.2 99
2020-01-07 23:00:00 5.1 3 Sudoeste 12 Sudoeste 0 980.1 0.1 99
2020-01-07 22:00:00 5.5 2 Sudoeste 8 Sudoeste 0 980.3 0.6 99
2020-01-07 21:00:00 6.3 0 Calma 0 Calma 0 980.1 0.5 96
2020-01-07 20:00:00 6.9 0 Calma 0 Calma 0 980 0.9 95
2020-01-07 19:00:00 7.6 0 Calma 3 Sudoeste 0 979.7 0.6 93
2020-01-07 18:00:00 9.1 0 Calma 9 Oeste 0 979.6 0.4 87
2020-01-07 17:00:00 10.4 0 Calma 9 Noroeste 0 979.1 -0.5 79
2020-01-07 16:00:00 10.9 3 Oeste 12 Noroeste 0 979.1 -1.5 73
2020-01-07 15:00:00 10.1 0 Calma 3 Oeste 0 979.2 -2.4 79
2020-01-07 14:00:00 9.8 0 Calma 6 Sudeste 0 979.6 -2.2 74
2020-01-07 13:00:00 8.6 0 Calma 9 Este 0 980.6 -0.6 80
2020-01-07 12:00:00 5.6 6 Sudeste 9 Sudeste 0 981.6 0.9 96
2020-01-07 11:00:00 4.5 0 Calma 2 Sudoeste 0 981.8 1 99
2020-01-07 10:00:00 2.9 0 Calma 5 Sudoeste 0 981.2 0.5 99
2020-01-07 09:00:00 1.9 0 Calma 0 Calma 0 980.7 0 99
2020-01-07 08:00:00 1.8 0 Calma 2 Sudeste 0 980.8 0 99
2020-01-07 07:00:00 2 0 Calma 0 Calma 0 980.7 0.1 99
2020-01-07 06:00:00 1.7 0 Calma 8 Oeste 0 980.7 0.1 99
2020-01-07 05:00:00 1.6 0 Calma 8 Sudoeste 0 980.8 -0.6 99
2020-01-07 04:00:00 2.4 0 Calma 5 Sur 0 980.6 -1 99
2020-01-07 03:00:00 2.6 2 Sudeste 7 Oeste 0 980.6 -0.8 99
2020-01-07 02:00:00 2.9 0 Calma 9 Sudoeste 0 981.4 0.4 99
2020-01-07 01:00:00 2.1 2 Sudoeste 9 Sudoeste 0 981.6 0.7 99
2020-01-07 00:00:00 2.5 0 Calma 6 Oeste 0 981.4 0.1 99
2020-01-06 23:00:00 2.9 0 Calma 5 Sudoeste 0 981 0.5 98
2020-01-06 22:00:00 3.3 0 Calma 5 Sudeste 0 980.9 1.7 95
2020-01-06 21:00:00 4.5 0 Calma 10 Sudoeste 0 981.3 2.6 94
2020-01-06 20:00:00 4.3 2 Oeste 9 Oeste 0 980.5 2.9 90
2020-01-06 19:00:00 4.8 0 Calma 5 Sudoeste 0 979.2 2.6 83
2020-01-06 18:00:00 7 4 Noroeste 19 Oeste 0 978.7 2.5 70
2020-01-06 17:00:00 8.7 7 Oeste 15 Oeste 0 977.6 1.1 59
2020-01-06 16:00:00 9.3 0 Calma 8 Oeste 0 976.6 -0.5 56
2020-01-06 15:00:00 9.3 0 Calma 6 Oeste 0 976.2 -1.8 56
2020-01-06 14:00:00 9.1 0 Calma 2 Oeste 0 976.5 -1.5 55
2020-01-06 13:00:00 9.7 0 Calma 3 Oeste 0 977.1 -0.2 53
2020-01-06 12:00:00 6.5 0 Calma 6 Sudoeste 0 978 1 63
2020-01-06 11:00:00 4.9 0 Calma 7 Sudoeste 0 978 1.6 70
2020-01-06 10:00:00 1.6 0 Calma 8 Oeste 0.1 977.3 1.7 91